createdAt,value
2017-11-30T00:01:03.731Z,17.73
2017-11-30T00:03:30.222Z,20.23
2017-11-30T00:05:56.613Z,17.30
2017-11-30T00:08:23.730Z,16.07
2017-11-30T00:10:50.056Z,15.17
2017-11-30T00:13:16.414Z,17.80
2017-11-30T00:15:43.524Z,16.80
2017-11-30T00:18:10.056Z,16.93
2017-11-30T00:20:36.397Z,17.40
2017-11-30T00:23:02.713Z,19.00
2017-11-30T00:25:29.106Z,17.00
2017-11-30T00:27:55.451Z,20.17
2017-11-30T00:30:22.349Z,14.80
2017-11-30T00:32:48.817Z,15.10
2017-11-30T00:35:15.256Z,17.67
2017-11-30T00:37:41.650Z,17.47
2017-11-30T00:40:08.656Z,19.40
2017-11-30T00:42:47.277Z,23.67
2017-11-30T00:45:13.710Z,16.53
2017-11-30T00:47:40.102Z,17.07
2017-11-30T00:50:08.301Z,19.13
2017-11-30T00:52:34.702Z,21.77
2017-11-30T00:55:01.937Z,19.30
2017-11-30T00:57:29.068Z,18.40
2017-11-30T00:59:55.504Z,17.83
2017-11-30T01:02:21.849Z,22.73
2017-11-30T01:04:48.941Z,18.60
2017-11-30T01:07:15.242Z,20.30
2017-11-30T01:09:41.945Z,20.47
2017-11-30T01:12:08.260Z,18.23
2017-11-30T01:14:34.617Z,18.87
2017-11-30T01:17:01.805Z,21.40
2017-11-30T01:19:28.093Z,22.17
2017-11-30T01:21:55.302Z,20.33
2017-11-30T01:24:21.701Z,18.83
2017-11-30T01:26:48.110Z,23.77
2017-11-30T01:29:15.229Z,20.77
2017-11-30T01:31:41.553Z,22.53
2017-11-30T01:34:07.877Z,23.07
2017-11-30T01:36:34.223Z,24.17
2017-11-30T01:39:00.734Z,22.57
2017-11-30T01:41:27.125Z,24.23
2017-11-30T01:43:53.478Z,21.33
2017-11-30T01:46:19.740Z,20.70
2017-11-30T01:48:46.085Z,26.23
2017-11-30T01:51:13.966Z,21.17
2017-11-30T01:53:41.069Z,25.37
2017-11-30T01:56:07.482Z,24.00
2017-11-30T01:58:34.055Z,29.27
2017-11-30T02:01:00.473Z,26.50
2017-11-30T02:03:27.229Z,23.47
2017-11-30T02:05:53.570Z,22.17
2017-11-30T02:08:20.637Z,24.60
2017-11-30T02:10:47.751Z,26.67
2017-11-30T02:13:15.367Z,29.20
2017-11-30T02:15:41.717Z,26.07
2017-11-30T02:18:08.369Z,32.00
2017-11-30T02:20:34.685Z,28.43
2017-11-30T02:23:01.002Z,30.50
2017-11-30T02:25:27.293Z,21.60
2017-11-30T02:27:54.415Z,26.77
2017-11-30T02:30:20.865Z,27.37
2017-11-30T02:32:48.098Z,27.57
2017-11-30T02:35:14.569Z,31.53
2017-11-30T02:37:41.581Z,28.47
2017-11-30T02:40:07.944Z,34.27
2017-11-30T02:42:34.318Z,38.67
2017-11-30T02:45:00.672Z,34.57
2017-11-30T02:47:27.160Z,35.53
2017-11-30T02:49:53.781Z,33.30
2017-11-30T02:52:20.750Z,35.33
2017-11-30T02:54:47.078Z,34.63
2017-11-30T02:57:13.443Z,34.30
2017-11-30T02:59:39.785Z,33.13
2017-11-30T03:02:06.987Z,39.37
2017-11-30T03:04:33.921Z,42.33
2017-11-30T03:07:00.243Z,35.27
2017-11-30T03:09:27.508Z,40.07
2017-11-30T03:11:55.682Z,35.47
2017-11-30T03:14:22.245Z,36.70
2017-11-30T03:16:48.664Z,43.37
2017-11-30T03:19:14.970Z,33.83
2017-11-30T03:21:41.458Z,35.23
2017-11-30T03:24:08.513Z,35.03
2017-11-30T03:26:35.633Z,36.10
2017-11-30T03:29:02.160Z,34.27
2017-11-30T03:31:28.479Z,40.80
2017-11-30T03:33:54.938Z,42.10
2017-11-30T03:36:22.096Z,39.50
2017-11-30T03:38:49.370Z,45.10
2017-11-30T03:41:15.926Z,36.97
2017-11-30T03:43:42.669Z,37.67
2017-11-30T03:46:08.985Z,38.03
2017-11-30T03:48:35.366Z,41.67
2017-11-30T03:51:03.586Z,47.87
2017-11-30T03:53:30.052Z,43.80
2017-11-30T03:55:56.771Z,45.47
2017-11-30T03:58:23.158Z,50.00
2017-11-30T04:00:51.202Z,51.17
2017-11-30T04:03:17.550Z,49.63
2017-11-30T04:05:43.842Z,53.17
2017-11-30T04:08:10.226Z,57.90
2017-11-30T04:10:37.561Z,51.23
2017-11-30T04:13:03.926Z,49.77
2017-11-30T04:15:30.349Z,62.63
2017-11-30T04:17:56.778Z,61.83
2017-11-30T04:20:23.094Z,60.50
2017-11-30T04:22:51.025Z,52.07
2017-11-30T04:25:18.203Z,51.40
2017-11-30T04:27:45.279Z,48.57
2017-11-30T04:30:11.593Z,41.90
2017-11-30T04:32:38.774Z,32.90
2017-11-30T04:35:06.495Z,33.37
2017-11-30T04:37:33.333Z,34.10
2017-11-30T04:40:01.314Z,36.93
2017-11-30T04:42:27.780Z,35.83
2017-11-30T04:44:54.094Z,41.00
2017-11-30T04:47:21.561Z,35.53
2017-11-30T04:49:48.689Z,33.27
2017-11-30T04:52:15.010Z,32.87
2017-11-30T04:54:41.366Z,33.67
2017-11-30T04:57:07.665Z,32.90
2017-11-30T04:59:33.986Z,29.23
2017-11-30T05:02:01.046Z,31.03
2017-11-30T05:04:27.341Z,30.50
2017-11-30T05:06:53.714Z,32.00
2017-11-30T05:09:20.079Z,36.97
2017-11-30T05:11:46.430Z,31.40
2017-11-30T05:14:12.754Z,30.83
2017-11-30T05:16:39.800Z,32.13
2017-11-30T05:19:06.110Z,30.43
2017-11-30T05:21:32.433Z,32.10
2017-11-30T05:24:13.642Z,27.10
2017-11-30T05:26:40.011Z,27.17
2017-11-30T05:29:06.334Z,33.20
2017-11-30T05:31:32.718Z,28.20
2017-11-30T05:33:59.043Z,29.33
2017-11-30T05:36:25.365Z,29.30
2017-11-30T05:38:51.714Z,28.30
2017-11-30T05:41:18.779Z,27.17
2017-11-30T05:43:46.213Z,27.43
2017-11-30T05:46:12.515Z,22.13
2017-11-30T05:48:39.009Z,26.27
2017-11-30T05:51:06.093Z,23.10
2017-11-30T05:53:33.166Z,24.10
2017-11-30T05:55:59.638Z,24.40
2017-11-30T05:58:26.910Z,26.07
2017-11-30T06:00:53.266Z,30.87
2017-11-30T06:03:19.751Z,27.70
2017-11-30T06:05:47.030Z,30.73
2017-11-30T06:08:13.416Z,30.90
2017-11-30T06:10:39.802Z,26.90
2017-11-30T06:13:06.201Z,26.20
2017-11-30T06:15:32.613Z,25.03
2017-11-30T06:17:59.717Z,30.70
2017-11-30T06:20:27.451Z,29.53
2017-11-30T06:22:53.952Z,33.10
2017-11-30T06:25:20.506Z,25.73
2017-11-30T06:27:49.518Z,30.20
2017-11-30T06:30:16.065Z,28.47
2017-11-30T06:32:43.413Z,33.60
2017-11-30T06:35:09.919Z,31.70
2017-11-30T06:37:37.022Z,44.03
2017-11-30T06:40:03.557Z,33.13
2017-11-30T06:42:29.885Z,40.47
2017-11-30T06:44:56.233Z,30.27
2017-11-30T06:47:22.605Z,32.90
2017-11-30T06:49:49.163Z,38.63
2017-11-30T06:52:15.431Z,33.20
2017-11-30T06:54:41.924Z,32.33
2017-11-30T06:57:08.281Z,32.30
2017-11-30T06:59:36.227Z,34.63
2017-11-30T07:02:02.526Z,34.57
2017-11-30T07:04:28.814Z,32.83
2017-11-30T07:06:56.129Z,34.83
2017-11-30T07:09:23.470Z,32.53
2017-11-30T07:11:49.825Z,33.40
2017-11-30T07:14:16.298Z,36.80
2017-11-30T07:16:43.430Z,34.63
2017-11-30T07:19:09.753Z,32.20
2017-11-30T07:21:36.113Z,42.17
2017-11-30T07:24:03.596Z,33.17
2017-11-30T07:26:30.019Z,38.40
2017-11-30T07:28:56.510Z,36.27
2017-11-30T07:31:23.737Z,37.17
2017-11-30T07:33:50.178Z,28.13
2017-11-30T07:36:16.485Z,32.50
2017-11-30T07:38:42.879Z,30.40
2017-11-30T07:41:09.185Z,25.90
2017-11-30T07:43:35.518Z,24.50
2017-11-30T07:46:01.822Z,27.63
2017-11-30T07:48:28.167Z,28.90
2017-11-30T07:50:54.461Z,25.40
2017-11-30T07:53:20.739Z,31.40
2017-11-30T07:55:48.441Z,29.57
2017-11-30T07:58:14.755Z,50.73
2017-11-30T08:00:41.101Z,28.77
2017-11-30T08:03:07.558Z,24.57
2017-11-30T08:05:34.014Z,21.60
2017-11-30T08:08:00.969Z,29.33
2017-11-30T08:10:28.061Z,24.13
2017-11-30T08:12:54.420Z,24.63
2017-11-30T08:15:20.741Z,24.13
2017-11-30T08:17:47.074Z,20.00
2017-11-30T08:20:13.445Z,17.00
2017-11-30T08:22:39.901Z,20.67
2017-11-30T08:25:06.201Z,19.23
2017-11-30T08:27:33.271Z,24.13
2017-11-30T08:29:59.710Z,20.83
2017-11-30T08:32:26.013Z,18.07
2017-11-30T08:34:52.373Z,19.97
2017-11-30T08:37:18.669Z,20.63
2017-11-30T08:39:45.022Z,26.57
2017-11-30T08:42:11.315Z,16.93
2017-11-30T08:44:38.778Z,18.70
2017-11-30T08:47:05.845Z,16.00
2017-11-30T08:49:32.178Z,18.10
2017-11-30T08:51:58.541Z,19.03
2017-11-30T08:54:25.205Z,15.20
2017-11-30T08:56:52.327Z,18.07
2017-11-30T08:59:18.787Z,19.13
2017-11-30T09:01:45.873Z,18.03
2017-11-30T09:04:12.909Z,19.23
2017-11-30T09:06:39.358Z,16.73
2017-11-30T09:09:05.685Z,22.43
2017-11-30T09:11:32.067Z,18.17
2017-11-30T09:13:59.189Z,23.53
2017-11-30T09:16:25.682Z,18.70
2017-11-30T09:18:52.020Z,19.87
2017-11-30T09:21:18.392Z,18.53
2017-11-30T09:23:44.752Z,21.30
2017-11-30T09:26:11.118Z,23.00
2017-11-30T09:28:37.594Z,24.40
2017-11-30T09:31:04.152Z,23.07
2017-11-30T09:33:31.361Z,21.00
2017-11-30T09:35:57.713Z,21.80
2017-11-30T09:38:24.152Z,21.90
2017-11-30T09:40:50.541Z,20.40
2017-11-30T09:43:16.866Z,18.97
2017-11-30T09:45:43.242Z,22.03
2017-11-30T09:48:14.511Z,21.40
2017-11-30T09:56:36.505Z,25.90
2017-11-30T09:59:03.045Z,27.03
2017-11-30T10:01:29.456Z,23.50
2017-11-30T10:03:55.825Z,27.77
2017-11-30T10:06:22.882Z,22.00
2017-11-30T10:08:49.221Z,24.73
2017-11-30T10:11:16.215Z,24.07
2017-11-30T10:13:42.582Z,25.63
2017-11-30T10:16:10.495Z,23.10
2017-11-30T10:18:36.847Z,29.23
2017-11-30T10:21:03.390Z,26.37
2017-11-30T10:23:29.705Z,21.90
2017-11-30T10:25:56.062Z,22.60
2017-11-30T10:28:22.424Z,22.90
2017-11-30T10:30:48.847Z,23.00
2017-11-30T10:33:15.830Z,30.83
2017-11-30T10:35:42.883Z,23.57
2017-11-30T10:38:09.218Z,23.20
2017-11-30T10:40:36.279Z,25.10
2017-11-30T10:43:03.097Z,21.23
2017-11-30T10:45:29.576Z,25.10
2017-11-30T10:47:56.221Z,21.10
2017-11-30T10:50:23.209Z,21.40
2017-11-30T10:52:49.643Z,27.13
2017-11-30T10:55:16.035Z,26.13
2017-11-30T10:57:43.268Z,25.53
2017-11-30T11:00:09.737Z,23.40
2017-11-30T11:02:36.251Z,25.53
2017-11-30T11:05:04.048Z,25.33
2017-11-30T11:07:34.504Z,27.37
2017-11-30T11:10:00.772Z,18.50
2017-11-30T11:12:27.750Z,18.57
2017-11-30T11:14:54.019Z,19.53
2017-11-30T11:17:21.241Z,23.10
2017-11-30T11:19:48.685Z,21.97
2017-11-30T11:22:15.154Z,24.37
2017-11-30T11:24:41.494Z,21.33
2017-11-30T11:27:07.894Z,17.17
2017-11-30T11:29:35.364Z,21.10
2017-11-30T11:32:01.768Z,21.50
2017-11-30T11:34:28.088Z,19.50
2017-11-30T11:36:56.185Z,22.43
2017-11-30T11:39:22.606Z,18.13
2017-11-30T11:41:49.048Z,21.90
2017-11-30T11:44:15.524Z,18.10
2017-11-30T11:46:41.818Z,17.90
2017-11-30T11:49:08.199Z,19.57
2017-11-30T11:51:34.756Z,16.93
2017-11-30T11:54:01.123Z,14.80
2017-11-30T11:56:27.376Z,19.73
2017-11-30T11:58:54.580Z,20.00
2017-11-30T12:01:20.993Z,19.93
2017-11-30T12:03:48.051Z,19.73
2017-11-30T12:06:14.314Z,22.67
2017-11-30T12:08:40.733Z,16.60
2017-11-30T12:11:07.797Z,19.27
2017-11-30T12:13:34.923Z,17.50
2017-11-30T12:16:01.200Z,15.63
2017-11-30T12:18:27.943Z,16.70
2017-11-30T12:20:54.322Z,16.20
2017-11-30T12:23:20.692Z,15.40
2017-11-30T12:25:47.124Z,16.27
2017-11-30T12:28:13.520Z,12.83
2017-11-30T12:30:40.525Z,11.57
2017-11-30T12:33:07.007Z,14.13
2017-11-30T12:35:33.402Z,19.83
2017-11-30T12:37:59.903Z,17.33
2017-11-30T12:40:26.275Z,15.47
2017-11-30T12:42:53.235Z,15.00
2017-11-30T12:45:19.669Z,15.40
2017-11-30T12:47:46.605Z,16.33
2017-11-30T12:50:13.240Z,19.17
2017-11-30T12:52:39.839Z,17.13
2017-11-30T12:55:07.244Z,14.77
2017-11-30T12:57:36.823Z,15.60
2017-11-30T13:00:04.652Z,15.50
2017-11-30T13:02:31.854Z,15.00
2017-11-30T13:04:59.979Z,17.17
2017-11-30T13:07:27.384Z,15.57
2017-11-30T13:09:54.386Z,15.80
2017-11-30T13:12:21.677Z,19.63
2017-11-30T13:14:48.709Z,16.80
2017-11-30T13:17:15.326Z,15.37
2017-11-30T13:19:41.908Z,18.83
2017-11-30T13:22:08.223Z,15.27
2017-11-30T13:24:35.572Z,16.27
2017-11-30T13:27:04.344Z,17.70
2017-11-30T13:29:32.260Z,14.03
2017-11-30T13:32:00.255Z,15.03
2017-11-30T13:34:26.774Z,14.27
2017-11-30T13:36:53.117Z,14.80
2017-11-30T13:39:19.553Z,14.70
2017-11-30T13:41:45.895Z,15.30
2017-11-30T13:44:12.163Z,18.13
2017-11-30T13:46:39.615Z,23.17
2017-11-30T13:49:05.883Z,15.60
2017-11-30T13:51:33.383Z,16.37
2017-11-30T13:54:00.549Z,17.33
2017-11-30T13:56:26.963Z,15.67
2017-11-30T13:58:54.688Z,15.53
2017-11-30T14:01:21.334Z,16.40
2017-11-30T14:03:47.675Z,20.30
2017-11-30T14:06:13.924Z,18.23
2017-11-30T14:08:40.638Z,15.40
2017-11-30T14:11:07.087Z,17.53
2017-11-30T14:13:34.263Z,19.33
2017-11-30T14:16:00.712Z,14.30
2017-11-30T14:18:27.988Z,17.47
2017-11-30T14:20:56.369Z,15.80
2017-11-30T14:23:23.006Z,14.30
2017-11-30T14:25:49.300Z,15.67
2017-11-30T14:28:16.451Z,17.90
2017-11-30T14:30:43.687Z,14.50
2017-11-30T14:33:10.207Z,15.00
2017-11-30T14:35:36.592Z,16.03
2017-11-30T14:38:03.153Z,16.80
2017-11-30T14:40:29.686Z,14.63
2017-11-30T14:42:57.488Z,13.93
2017-11-30T14:45:24.748Z,18.47
2017-11-30T14:47:51.905Z,15.80
2017-11-30T14:50:18.317Z,13.37
2017-11-30T14:52:44.626Z,15.53
2017-11-30T14:55:11.604Z,16.03
2017-11-30T14:57:38.739Z,13.70
2017-11-30T15:00:05.954Z,14.10
2017-11-30T15:02:32.392Z,15.93
2017-11-30T15:04:58.932Z,13.57
2017-11-30T15:07:25.324Z,15.30
2017-11-30T15:09:51.613Z,15.67
2017-11-30T15:12:18.633Z,12.93
2017-11-30T15:17:36.889Z,15.33
2017-11-30T15:20:03.098Z,14.87
2017-11-30T15:22:29.730Z,15.13
2017-11-30T15:24:57.858Z,15.00
2017-11-30T15:27:24.076Z,14.20
2017-11-30T15:29:51.139Z,16.60
2017-11-30T15:32:18.154Z,15.50
2017-11-30T15:34:44.310Z,16.43
2017-11-30T15:37:11.196Z,17.23
2017-11-30T15:39:37.417Z,17.27
2017-11-30T15:42:03.607Z,14.70
2017-11-30T15:44:30.745Z,16.97
2017-11-30T15:46:57.661Z,15.30
2017-11-30T15:49:23.849Z,16.43
2017-11-30T15:51:50.143Z,14.67
2017-11-30T15:54:16.297Z,16.60
2017-11-30T15:56:42.444Z,16.83
2017-11-30T15:59:08.851Z,14.57
2017-11-30T16:01:35.015Z,16.23
2017-11-30T16:04:01.272Z,14.67
2017-11-30T16:06:28.474Z,14.07
2017-11-30T16:08:54.974Z,15.77
2017-11-30T16:11:21.229Z,15.50
2017-11-30T16:13:47.908Z,19.90
2017-11-30T16:16:14.341Z,14.70
2017-11-30T16:18:41.809Z,15.83
2017-11-30T16:21:10.421Z,16.23
2017-11-30T16:23:37.152Z,20.13
2017-11-30T16:26:03.444Z,17.27
2017-11-30T16:28:29.817Z,18.83
2017-11-30T16:30:57.245Z,17.23
2017-11-30T16:33:24.736Z,20.57
2017-11-30T16:35:51.637Z,16.33
2017-11-30T16:38:18.727Z,16.20
2017-11-30T16:40:44.869Z,20.17
2017-11-30T16:43:11.137Z,17.70
2017-11-30T16:45:37.264Z,15.20
2017-11-30T16:48:04.381Z,15.27
2017-11-30T16:50:30.537Z,17.07
2017-11-30T16:52:57.543Z,16.40
2017-11-30T16:55:23.733Z,19.30
2017-11-30T16:57:49.954Z,18.97
2017-11-30T17:00:16.096Z,15.17
2017-11-30T17:02:42.874Z,14.07
2017-11-30T17:05:09.821Z,14.40
2017-11-30T17:07:37.458Z,13.10
2017-11-30T17:10:05.548Z,15.80
2017-11-30T17:12:31.849Z,17.50
2017-11-30T17:14:58.216Z,11.77
2017-11-30T17:17:24.832Z,14.47
2017-11-30T17:19:51.097Z,14.53
2017-11-30T17:22:18.422Z,12.20
2017-11-30T17:24:44.657Z,12.53
2017-11-30T17:27:11.110Z,11.53
2017-11-30T17:29:38.377Z,10.40
2017-11-30T17:32:05.458Z,13.50
2017-11-30T17:34:31.961Z,13.03
2017-11-30T17:36:58.323Z,13.07
2017-11-30T17:39:24.748Z,10.23
2017-11-30T17:41:52.000Z,11.90
2017-11-30T17:44:18.321Z,9.20
2017-11-30T17:46:44.832Z,11.00
2017-11-30T17:49:11.861Z,9.00
2017-11-30T17:51:39.268Z,11.53
2017-11-30T17:54:05.729Z,10.97
2017-11-30T17:56:31.916Z,8.50
2017-11-30T17:58:58.178Z,9.27
2017-11-30T18:01:24.450Z,8.07
2017-11-30T18:03:51.421Z,15.67
2017-11-30T18:06:17.756Z,12.00
2017-11-30T18:08:44.132Z,8.23
2017-11-30T18:11:11.204Z,10.80
2017-11-30T18:13:37.546Z,11.60
2017-11-30T18:16:03.956Z,9.40
2017-11-30T18:18:31.068Z,9.30
2017-11-30T18:20:57.215Z,9.50
2017-11-30T18:23:24.140Z,11.33
2017-11-30T18:25:50.461Z,8.57
2017-11-30T18:28:17.520Z,8.57
2017-11-30T18:30:44.497Z,9.30
2017-11-30T18:33:12.726Z,13.83
2017-11-30T18:35:40.153Z,6.90
2017-11-30T18:38:06.459Z,10.90
2017-11-30T18:40:36.136Z,8.17
2017-11-30T18:43:02.730Z,11.10
2017-11-30T18:45:29.229Z,9.87
2017-11-30T18:47:55.781Z,9.87
2017-11-30T18:50:22.912Z,9.27
2017-11-30T18:52:49.573Z,10.00
2017-11-30T18:55:15.891Z,8.80
2017-11-30T18:57:43.406Z,12.03
2017-11-30T19:00:09.954Z,10.57
2017-11-30T19:02:37.334Z,10.03
2017-11-30T19:05:03.897Z,10.47
2017-11-30T19:07:30.430Z,10.43
2017-11-30T19:09:56.868Z,11.35
2017-11-30T19:12:23.365Z,14.20
2017-11-30T19:14:49.833Z,7.67
2017-11-30T19:17:16.062Z,5.87
2017-11-30T19:19:43.079Z,6.80
2017-11-30T19:22:10.171Z,6.73
2017-11-30T19:24:36.496Z,5.10
2017-11-30T19:27:02.800Z,6.50
2017-11-30T19:29:28.981Z,13.17
2017-11-30T19:31:56.160Z,6.00
2017-11-30T19:34:22.327Z,6.03
2017-11-30T19:36:48.565Z,11.53
2017-11-30T19:39:14.994Z,7.33
2017-11-30T19:41:41.328Z,6.77
2017-11-30T19:47:00.660Z,6.30
2017-11-30T19:49:27.779Z,6.63
2017-11-30T19:51:54.776Z,8.87
2017-11-30T19:54:21.438Z,6.20
2017-11-30T19:56:48.471Z,7.03
2017-11-30T19:59:14.782Z,8.93
2017-11-30T20:01:41.071Z,10.63
2017-11-30T20:04:07.333Z,8.57
2017-11-30T20:06:34.099Z,7.30
2017-11-30T20:09:00.600Z,7.73
2017-11-30T20:11:27.047Z,16.10
2017-11-30T20:13:53.463Z,8.63
2017-11-30T20:16:19.770Z,6.13
2017-11-30T20:18:46.019Z,5.80
2017-11-30T20:21:12.304Z,10.47
2017-11-30T20:23:40.045Z,7.37
2017-11-30T20:26:06.310Z,7.20
2017-11-30T20:28:33.303Z,6.17
2017-11-30T20:31:00.948Z,13.93
2017-11-30T20:33:27.203Z,10.27
2017-11-30T20:35:53.479Z,8.00
2017-11-30T20:38:20.707Z,9.20
2017-11-30T20:40:47.734Z,11.53
2017-11-30T20:43:13.978Z,7.07
2017-11-30T20:45:41.084Z,13.87
2017-11-30T20:48:07.339Z,7.97
2017-11-30T20:50:33.620Z,8.30
2017-11-30T20:52:59.913Z,9.53
2017-11-30T20:55:26.882Z,7.87
2017-11-30T20:57:53.151Z,12.43
2017-11-30T21:00:19.453Z,8.73
2017-11-30T21:02:46.944Z,8.20
2017-11-30T21:05:13.337Z,8.37
2017-11-30T21:07:39.815Z,8.43
2017-11-30T21:10:07.684Z,8.50
2017-11-30T21:12:34.364Z,12.63
2017-11-30T21:15:01.881Z,8.57
2017-11-30T21:17:29.116Z,6.47
2017-11-30T21:19:55.414Z,6.53
2017-11-30T21:22:21.873Z,9.70
2017-11-30T21:24:48.524Z,7.40
2017-11-30T21:27:14.979Z,13.83
2017-11-30T21:29:41.980Z,8.80
2017-11-30T21:32:08.419Z,9.23
2017-11-30T21:34:36.103Z,10.53
2017-11-30T21:37:03.842Z,9.30
2017-11-30T21:39:30.923Z,11.60
2017-11-30T21:41:58.225Z,9.40
2017-11-30T21:44:24.700Z,10.77
2017-11-30T21:46:51.593Z,11.50
2017-11-30T21:49:17.840Z,12.27
2017-11-30T21:51:45.157Z,13.83
2017-11-30T21:54:12.593Z,14.27
2017-11-30T21:56:39.740Z,15.40
2017-11-30T21:59:06.767Z,13.30
2017-11-30T22:01:33.387Z,17.10
2017-11-30T22:04:01.034Z,11.70
2017-11-30T22:06:27.859Z,12.40
2017-11-30T22:08:54.259Z,10.60
2017-11-30T22:11:20.725Z,12.20
2017-11-30T22:13:47.523Z,13.80
2017-11-30T22:16:15.536Z,13.10
2017-11-30T22:18:43.813Z,11.87
2017-11-30T22:21:10.121Z,12.57
2017-11-30T22:23:39.583Z,10.50
2017-11-30T22:26:06.087Z,10.80
2017-11-30T22:28:32.734Z,10.73
2017-11-30T22:31:01.503Z,11.70
2017-11-30T22:33:28.243Z,12.60
2017-11-30T22:35:54.803Z,12.77
2017-11-30T22:38:21.215Z,13.57
2017-11-30T22:40:48.233Z,13.50
2017-11-30T22:43:17.525Z,17.10
2017-11-30T22:45:45.146Z,11.87
2017-11-30T22:48:13.365Z,19.73
2017-11-30T22:50:40.808Z,10.90
2017-11-30T22:53:07.175Z,16.10
2017-11-30T22:55:33.904Z,14.63
2017-11-30T22:58:00.451Z,13.17
2017-11-30T23:00:42.063Z,18.97
2017-11-30T23:03:10.293Z,20.40
2017-11-30T23:05:37.231Z,19.03
2017-11-30T23:08:04.933Z,18.33
2017-11-30T23:10:32.900Z,20.93
2017-11-30T23:12:59.333Z,16.50
2017-11-30T23:15:26.679Z,16.27
2017-11-30T23:17:54.326Z,19.13
2017-11-30T23:20:20.873Z,16.97
2017-11-30T23:22:47.644Z,19.27
2017-11-30T23:25:15.868Z,18.43
2017-11-30T23:27:42.363Z,22.13
2017-11-30T23:30:11.793Z,21.47
2017-11-30T23:32:39.262Z,14.73
2017-11-30T23:35:05.879Z,19.60
2017-11-30T23:37:33.942Z,15.80
2017-11-30T23:40:00.460Z,17.23
2017-11-30T23:42:27.847Z,13.40
2017-11-30T23:44:54.121Z,18.63
2017-11-30T23:47:20.410Z,19.83
2017-11-30T23:49:47.507Z,18.50
2017-11-30T23:52:14.131Z,16.63
2017-11-30T23:54:40.461Z,20.57
2017-11-30T23:57:08.060Z,21.20
2017-11-30T23:59:34.553Z,16.63
